Time;durP1;ratioP1;P1;durP2;ratioP2;P2;SDS_P1;SDS_P2;PMS_P1;PMS_P2;Temp;Humidity;BMP_temperature;BMP_pressure;BME280_temperature;BME280_humidity;BME280_pressure;Samples;Min_cycle;Max_cycle;Signal;HPM_P1;HPM_P2
2021/01/19 00:00:20;;;;;;;31.85;16.13;;;;;;;-3.47;47.80;95495.00;4916555;29;20106;-86
2021/01/19 00:02:48;;;;;;;22.75;14.20;;;;;;;-3.64;47.45;95489.59;4913132;29;20063;-87
2021/01/19 00:05:14;;;;;;;22.58;13.32;;;;;;;-3.57;47.44;95501.81;4899410;29;20414;-87
2021/01/19 00:07:39;;;;;;;26.35;15.00;;;;;;;-3.63;48.05;95496.28;4953116;28;20506;-87
2021/01/19 00:10:08;;;;;;;19.92;12.05;;;;;;;-3.72;47.63;95499.59;4913528;29;20051;-86
2021/01/19 00:12:36;;;;;;;27.35;13.77;;;;;;;-3.80;47.90;95499.41;4941238;29;20522;-86
2021/01/19 00:15:06;;;;;;;26.20;14.50;;;;;;;-3.83;47.84;95494.59;4931118;29;20057;-85
2021/01/19 00:17:32;;;;;;;24.77;13.38;;;;;;;-3.81;48.25;95495.28;4914979;28;20035;-85
2021/01/19 00:20:05;;;;;;;21.13;14.00;;;;;;;-3.86;48.54;95499.13;5022264;23;20034;-85
2021/01/19 00:22:32;;;;;;;22.95;13.38;;;;;;;-3.90;47.98;95501.13;4943412;29;20046;-85
2021/01/19 00:24:58;;;;;;;23.95;12.65;;;;;;;-4.05;48.70;95503.19;4905382;29;20130;-85
2021/01/19 00:27:24;;;;;;;19.58;12.15;;;;;;;-4.08;48.37;95500.06;4920026;29;20042;-85
2021/01/19 00:29:49;;;;;;;27.20;14.52;;;;;;;-4.08;48.83;95490.72;4935004;29;20039;-86
2021/01/19 00:32:15;;;;;;;29.52;15.27;;;;;;;-4.08;48.80;95502.59;4921289;29;20031;-87
2021/01/19 00:34:40;;;;;;;41.42;18.23;;;;;;;-4.15;49.25;95501.50;4941016;29;20030;-87
2021/01/19 00:37:06;;;;;;;44.67;15.65;;;;;;;-4.14;48.50;95495.50;4959119;28;20042;-87
2021/01/19 00:39:31;;;;;;;47.20;18.95;;;;;;;-4.15;49.06;95494.69;4959674;29;20075;-87
2021/01/19 00:44:34;;;;;;;44.08;18.60;;;;;;;-4.31;49.00;95474.81;5852911;23;20047;-85
2021/01/19 00:46:59;;;;;;;56.03;20.55;;;;;;;-4.27;49.20;95496.50;4974621;28;20509;-87
2021/01/19 00:49:25;;;;;;;43.67;18.90;;;;;;;-4.27;49.40;95493.94;4947326;29;20031;-87
2021/01/19 00:51:50;;;;;;;37.22;17.65;;;;;;;-4.24;49.23;95475.13;4922740;29;20071;-87
2021/01/19 00:54:16;;;;;;;26.45;12.93;;;;;;;-4.26;49.28;95485.41;4923319;29;20154;-87
2021/01/19 00:59:22;;;;;;;20.92;12.32;;;;;;;-4.39;49.50;95486.53;4954391;29;20586;-87
2021/01/19 01:01:48;;;;;;;23.55;13.80;;;;;;;-4.38;48.96;95494.03;4939597;29;20039;-86
2021/01/19 01:04:14;;;;;;;22.48;13.38;;;;;;;-4.35;49.63;95490.44;4938081;29;20035;-84
2021/01/19 01:06:40;;;;;;;20.92;12.30;;;;;;;-4.33;49.36;95489.38;4924310;29;20031;-85
2021/01/19 01:09:05;;;;;;;23.90;13.32;;;;;;;-4.32;49.35;95488.44;4923158;29;20486;-85
2021/01/19 01:11:41;;;;;;;19.83;12.57;;;;;;;-4.21;49.01;95494.41;4958495;29;20023;-86
2021/01/19 01:14:06;;;;;;;22.10;11.90;;;;;;;-4.15;48.72;95478.66;4958490;28;20051;-86
2021/01/19 01:16:32;;;;;;;20.27;11.57;;;;;;;-4.22;48.94;95477.56;4926680;29;20043;-85
2021/01/19 01:18:57;;;;;;;22.25;12.82;;;;;;;-4.14;48.78;95480.25;4927195;29;20629;-85
2021/01/19 01:21:23;;;;;;;22.20;12.57;;;;;;;-4.18;48.67;95476.38;4928926;29;20027;-85
2021/01/19 01:23:48;;;;;;;30.45;13.82;;;;;;;-4.15;49.02;95481.19;4959762;29;20059;-86
2021/01/19 01:26:18;;;;;;;36.60;15.50;;;;;;;-4.08;48.52;95475.47;4960138;29;20035;-85
2021/01/19 01:28:44;;;;;;;37.88;15.88;;;;;;;-4.13;48.53;95481.88;4937775;29;20066;-86
2021/01/19 01:31:10;;;;;;;27.15;12.98;;;;;;;-4.19;48.59;95474.75;4962222;28;20031;-86
2021/01/19 01:33:35;;;;;;;28.00;13.07;;;;;;;-4.13;48.80;95471.72;4960672;29;20046;-86
2021/01/19 01:36:01;;;;;;;32.53;14.40;;;;;;;-4.08;48.43;95480.56;4945806;29;20035;-86
2021/01/19 01:38:26;;;;;;;21.80;13.73;;;;;;;-4.08;48.57;95474.66;4960210;29;20509;-86
2021/01/19 01:40:52;;;;;;;22.10;13.45;;;;;;;-4.08;48.23;95469.59;4960809;29;20032;-87
2021/01/19 01:43:17;;;;;;;26.85;13.02;;;;;;;-4.04;48.37;95473.50;4942824;29;20098;-86
2021/01/19 01:45:45;;;;;;;37.63;15.90;;;;;;;-3.96;48.03;95473.66;4942963;29;20032;-86
2021/01/19 01:48:11;;;;;;;32.17;14.77;;;;;;;-3.95;48.36;95470.19;4942700;29;20039;-86
2021/01/19 01:50:37;;;;;;;31.20;15.32;;;;;;;-3.91;48.08;95466.47;4943795;29;20431;-85
2021/01/19 01:53:03;;;;;;;25.77;12.90;;;;;;;-3.85;48.20;95465.16;4944409;29;20495;-84
2021/01/19 01:55:28;;;;;;;34.55;16.90;;;;;;;-3.83;47.85;95476.81;4944028;29;20042;-85
2021/01/19 01:57:55;;;;;;;28.30;14.65;;;;;;;-3.89;48.03;95469.72;4926263;29;20038;-86
2021/01/19 02:00:21;;;;;;;21.20;12.95;;;;;;;-3.83;47.44;95471.72;4926937;29;20058;-86
2021/01/19 02:02:53;;;;;;;22.42;12.82;;;;;;;-3.85;47.71;95475.34;4945176;29;20079;-86
2021/01/19 02:05:19;;;;;;;17.75;10.75;;;;;;;-3.90;47.83;95472.38;4929439;29;20063;-84
2021/01/19 02:08:22;;;;;;;30.67;12.95;;;;;;;-3.84;47.90;95472.66;4944724;29;20546;-87
2021/01/19 02:10:55;;;;;;;35.47;14.00;;;;;;;-3.76;47.93;95472.81;4960832;29;20039;-87
2021/01/19 02:13:23;;;;;;;15.07;11.40;;;;;;;-3.75;47.65;95466.81;4944578;29;20031;-86
2021/01/19 02:16:03;;;;;;;27.83;14.80;;;;;;;-3.68;47.64;95478.06;4961904;29;20414;-87
2021/01/19 02:18:48;;;;;;;20.65;13.25;;;;;;;-3.69;47.51;95476.47;4941225;29;20031;-86
2021/01/19 02:21:35;;;;;;;26.85;13.85;;;;;;;-3.66;47.50;95463.50;4958361;28;20039;-87
2021/01/19 02:24:08;;;;;;;24.30;12.82;;;;;;;-3.67;47.47;95463.63;4955442;28;20035;-87
2021/01/19 02:26:55;;;;;;;32.45;16.48;;;;;;;-3.51;47.65;95460.59;4954121;29;20035;-86
2021/01/19 02:29:55;;;;;;;32.20;13.52;;;;;;;-3.49;47.59;95466.34;4955221;29;20046;-85
2021/01/19 02:32:39;;;;;;;33.45;14.35;;;;;;;-3.52;47.13;95466.63;4957916;29;20038;-87
2021/01/19 02:35:07;;;;;;;35.40;15.30;;;;;;;-3.56;47.20;95467.81;4960029;29;20121;-87
2021/01/19 02:37:52;;;;;;;41.15;17.15;;;;;;;-3.66;48.00;95471.13;4959364;29;20027;-86
2021/01/19 02:40:18;;;;;;;37.45;15.90;;;;;;;-3.54;48.14;95459.13;4945497;29;20070;-87
2021/01/19 02:42:52;;;;;;;39.17;15.30;;;;;;;-3.43;47.11;95469.19;4958878;29;20487;-86
2021/01/19 02:45:17;;;;;;;37.17;15.73;;;;;;;-3.51;47.33;95458.06;4943193;29;20046;-85
2021/01/19 02:47:43;;;;;;;33.20;15.70;;;;;;;-3.45;47.64;95460.88;4939221;29;20038;-86
2021/01/19 02:50:09;;;;;;;48.50;20.65;;;;;;;-3.41;47.32;95461.44;4943470;29;20043;-87
2021/01/19 02:52:36;;;;;;;28.92;15.50;;;;;;;-3.43;47.20;95469.19;4942541;29;20153;-86
2021/01/19 02:55:02;;;;;;;32.78;15.13;;;;;;;-3.30;47.26;95471.50;4943139;29;20150;-88
2021/01/19 02:57:46;;;;;;;41.78;17.40;;;;;;;-3.35;47.42;95482.06;4925931;29;20508;-85
2021/01/19 03:00:21;;;;;;;41.75;18.55;;;;;;;-3.39;47.55;95474.84;4958244;29;20049;-84
2021/01/19 03:02:47;;;;;;;39.95;16.52;;;;;;;-3.46;47.42;95478.81;4927349;29;20043;-85
2021/01/19 03:05:13;;;;;;;23.85;14.60;;;;;;;-3.37;47.54;95470.41;4960082;29;20035;-85
2021/01/19 03:07:42;;;;;;;22.15;12.27;;;;;;;-3.31;47.09;95474.97;4927202;29;20027;-85
2021/01/19 03:10:08;;;;;;;13.68;9.15;;;;;;;-3.39;47.28;95477.38;4959734;29;20031;-85
2021/01/19 03:12:43;;;;;;;22.42;12.23;;;;;;;-3.58;47.52;95474.75;4944061;29;20426;-86
2021/01/19 03:15:10;;;;;;;19.38;11.20;;;;;;;-3.77;48.44;95483.09;4943607;29;20063;-86
2021/01/19 03:17:35;;;;;;;19.83;11.18;;;;;;;-3.72;48.09;95476.72;4943499;29;20019;-84
2021/01/19 03:20:01;;;;;;;13.88;10.75;;;;;;;-3.74;48.45;95482.88;4927292;29;20031;-84
2021/01/19 03:22:26;;;;;;;18.77;12.10;;;;;;;-3.74;48.75;95482.88;4958649;29;20114;-84
2021/01/19 03:24:52;;;;;;;20.30;9.25;;;;;;;-3.75;48.45;95486.31;4943450;29;20035;-84
2021/01/19 03:27:17;;;;;;;15.25;10.82;;;;;;;-3.79;48.37;95479.91;4941530;29;20035;-84
2021/01/19 03:29:52;;;;;;;23.80;11.52;;;;;;;-3.84;49.05;95482.81;4941654;29;20035;-86
2021/01/19 03:32:17;;;;;;;18.33;11.45;;;;;;;-3.80;48.76;95478.28;4941520;29;20052;-84
2021/01/19 03:34:43;;;;;;;21.33;14.10;;;;;;;-3.81;48.64;95481.75;4944496;29;20043;-86
2021/01/19 03:37:08;;;;;;;28.25;15.90;;;;;;;-3.78;48.25;95477.22;4960525;28;20585;-86
2021/01/19 03:39:33;;;;;;;18.92;12.57;;;;;;;-3.69;47.85;95483.28;4959813;29;20035;-86
2021/01/19 03:41:59;;;;;;;24.25;13.63;;;;;;;-3.81;48.25;95477.47;4943639;29;20042;-87
2021/01/19 03:44:24;;;;;;;18.23;11.15;;;;;;;-3.77;48.20;95478.84;4943584;29;20050;-87
2021/01/19 03:46:50;;;;;;;30.70;16.35;;;;;;;-3.74;48.67;95487.97;4928904;29;20031;-86
2021/01/19 03:49:16;;;;;;;20.83;12.15;;;;;;;-3.74;48.61;95488.75;4959356;29;20039;-86
2021/01/19 03:51:41;;;;;;;18.75;10.88;;;;;;;-3.70;48.84;95497.72;4941792;29;20062;-86
2021/01/19 03:54:07;;;;;;;21.17;12.30;;;;;;;-3.83;48.67;95481.91;4916964;29;20522;-87
2021/01/19 03:56:32;;;;;;;25.75;12.68;;;;;;;-3.83;48.77;95494.59;4925882;29;20036;-87
2021/01/19 03:58:58;;;;;;;20.55;11.93;;;;;;;-3.86;49.07;95486.44;4940250;29;20035;-88
2021/01/19 04:01:23;;;;;;;16.52;10.25;;;;;;;-3.84;49.33;95492.19;4956144;29;20039;-87
2021/01/19 04:03:49;;;;;;;22.83;12.52;;;;;;;-3.90;49.62;95480.81;4975950;28;20046;-87
2021/01/19 04:06:14;;;;;;;23.42;13.43;;;;;;;-3.96;49.53;95476.22;4970039;28;20062;-85
2021/01/19 04:08:49;;;;;;;22.63;14.13;;;;;;;-3.94;49.45;95487.03;4941752;29;20039;-86
2021/01/19 04:11:15;;;;;;;20.50;12.13;;;;;;;-4.06;49.79;95485.53;4960908;29;20046;-87
2021/01/19 04:13:40;;;;;;;23.60;13.75;;;;;;;-4.00;50.12;95492.66;4928531;29;20043;-87
2021/01/19 04:16:06;;;;;;;37.92;15.70;;;;;;;-4.07;49.42;95483.91;4927632;29;20039;-86
2021/01/19 04:18:31;;;;;;;32.25;15.65;;;;;;;-4.03;49.99;95492.91;4926912;29;20038;-87
2021/01/19 04:20:57;;;;;;;38.97;17.80;;;;;;;-3.98;49.95;95490.78;4926281;29;20040;-87
2021/01/19 04:23:22;;;;;;;36.70;17.85;;;;;;;-4.01;49.55;95485.94;4960205;28;20031;-87
2021/01/19 04:25:48;;;;;;;68.47;26.33;;;;;;;-4.00;50.13;95493.44;4956840;29;20538;-86
2021/01/19 04:28:14;;;;;;;32.50;15.80;;;;;;;-4.03;49.76;95483.53;4934337;29;20032;-87
2021/01/19 04:30:43;;;;;;;28.55;15.75;;;;;;;-4.01;49.94;95491.03;4946118;29;20051;-87
2021/01/19 04:33:09;;;;;;;21.92;12.40;;;;;;;-4.02;50.06;95487.69;5030109;23;20047;-87
2021/01/19 04:35:34;;;;;;;32.20;17.00;;;;;;;-4.03;49.88;95487.81;4928841;29;20050;-80
2021/01/19 04:38:00;;;;;;;22.85;12.95;;;;;;;-3.99;49.81;95499.34;4963185;28;20039;-81
2021/01/19 04:40:25;;;;;;;26.80;14.80;;;;;;;-3.95;50.43;95498.13;4960212;29;20040;-80
2021/01/19 04:42:51;;;;;;;32.80;16.70;;;;;;;-4.09;49.93;95499.25;4906454;29;20239;-83
2021/01/19 04:45:16;;;;;;;34.17;16.95;;;;;;;-4.18;50.42;95509.38;4901016;29;20330;-83
2021/01/19 04:47:42;;;;;;;33.80;17.55;;;;;;;-4.18;50.51;95501.75;4914049;29;20526;-83
2021/01/19 04:50:09;;;;;;;27.98;16.17;;;;;;;-4.25;50.45;95504.78;4921961;29;20031;-81
2021/01/19 04:52:35;;;;;;;35.75;16.90;;;;;;;-4.20;50.45;95488.41;4921659;29;20038;-83
2021/01/19 04:55:08;;;;;;;25.20;13.95;;;;;;;-4.21;50.39;95479.16;4916562;29;20050;-82
2021/01/19 04:57:38;;;;;;;16.70;12.23;;;;;;;-4.25;50.58;95488.75;4917236;29;20039;-83
2021/01/19 05:00:08;;;;;;;36.20;13.95;;;;;;;-4.40;51.70;95493.31;4933876;29;20040;-84
2021/01/19 05:02:37;;;;;;;30.05;15.63;;;;;;;-4.38;51.70;95494.03;4901757;29;20027;-80
2021/01/19 05:05:21;;;;;;;34.05;16.13;;;;;;;-4.35;50.97;95492.97;4950206;29;20083;-82
2021/01/19 05:08:02;;;;;;;19.15;12.73;;;;;;;-4.34;51.31;95500.47;4934662;29;20070;-84
2021/01/19 05:10:35;;;;;;;19.27;12.63;;;;;;;-4.30;51.09;95508.63;4950305;29;20036;-83
2021/01/19 05:13:11;;;;;;;28.20;15.02;;;;;;;-4.26;50.74;95503.19;4931760;29;20109;-83
2021/01/19 05:15:44;;;;;;;28.60;14.38;;;;;;;-4.09;50.31;95511.16;4931149;29;20031;-83
2021/01/19 05:18:10;;;;;;;21.90;13.73;;;;;;;-4.09;49.81;95517.03;4911923;29;20027;-83
2021/01/19 05:20:43;;;;;;;30.42;15.90;;;;;;;-4.02;50.21;95517.38;4901169;29;20044;-79
2021/01/19 05:23:10;;;;;;;31.90;15.70;;;;;;;-3.83;49.74;95522.53;4900646;29;20027;-80
2021/01/19 05:25:36;;;;;;;30.15;14.90;;;;;;;-3.71;49.50;95524.09;4918934;29;20035;-86
2021/01/19 05:28:01;;;;;;;64.65;23.98;;;;;;;-3.59;49.27;95516.34;4920446;29;20051;-81
2021/01/19 05:30:27;;;;;;;49.28;21.08;;;;;;;-3.62;48.84;95510.59;4935585;29;20424;-82
2021/01/19 05:32:52;;;;;;;58.30;24.02;;;;;;;-3.64;48.64;95507.38;4916630;29;20043;-84
2021/01/19 05:35:21;;;;;;;30.08;14.77;;;;;;;-3.49;49.03;95517.19;4901254;29;20031;-84
2021/01/19 05:37:56;;;;;;;31.63;14.40;;;;;;;-3.47;48.71;95512.78;4919603;29;20043;-81
2021/01/19 05:40:23;;;;;;;32.80;13.75;;;;;;;-3.41;48.85;95505.47;4934995;29;20110;-79
2021/01/19 05:42:48;;;;;;;23.17;14.02;;;;;;;-3.37;49.13;95509.34;4936257;29;20032;-80
2021/01/19 05:45:14;;;;;;;23.80;13.93;;;;;;;-3.41;49.20;95504.66;4919809;29;20039;-81
2021/01/19 05:47:39;;;;;;;20.75;13.48;;;;;;;-3.51;49.08;95498.72;4904398;29;20028;-81
2021/01/19 05:50:07;;;;;;;32.28;13.93;;;;;;;-3.47;48.78;95500.09;4903401;29;20042;-80
2021/01/19 05:52:33;;;;;;;32.35;14.85;;;;;;;-3.46;49.31;95501.69;4951560;29;20091;-80
2021/01/19 05:54:59;;;;;;;30.73;17.38;;;;;;;-3.46;49.20;95496.59;4924076;29;20058;-80
2021/01/19 05:58:17;;;;;;;32.70;17.90;;;;;;;-3.67;49.27;95479.69;5062366;23;20047;-82
2021/01/19 06:01:29;;;;;;;45.47;21.75;;;;;;;-3.49;49.57;95496.88;4874368;29;20041;-82
2021/01/19 06:03:59;;;;;;;41.60;17.80;;;;;;;-3.45;49.98;95500.75;4979887;23;20055;-82
2021/01/19 06:06:25;;;;;;;30.70;15.10;;;;;;;-3.50;49.54;95500.34;4943476;29;20567;-82
2021/01/19 06:08:58;;;;;;;33.65;16.83;;;;;;;-3.29;49.36;95508.69;4909881;29;20031;-80
2021/01/19 06:11:24;;;;;;;43.92;17.60;;;;;;;-3.20;49.24;95515.56;4900969;29;20028;-81
2021/01/19 06:13:50;;;;;;;39.65;18.67;;;;;;;-3.10;49.19;95511.28;4938529;29;20507;-81
2021/01/19 06:16:16;;;;;;;35.05;19.67;;;;;;;-2.94;48.77;95522.69;4905252;29;20090;-81
2021/01/19 06:18:41;;;;;;;26.30;14.95;;;;;;;-2.88;48.89;95522.19;4940354;29;20424;-83
2021/01/19 06:21:06;;;;;;;47.28;20.13;;;;;;;-2.69;48.72;95512.03;4941311;29;20043;-82
2021/01/19 06:23:33;;;;;;;27.60;16.58;;;;;;;-2.63;48.18;95508.94;4907882;29;20027;-82
2021/01/19 06:26:14;;;;;;;23.95;14.52;;;;;;;-2.44;48.91;95511.50;4921579;29;20027;-82
2021/01/19 06:28:46;;;;;;;42.70;20.10;;;;;;;-2.37;48.03;95506.66;4939948;29;20063;-82
2021/01/19 06:31:15;;;;;;;26.35;14.05;;;;;;;-2.29;48.39;95522.06;4938187;29;20518;-84
2021/01/19 06:33:41;;;;;;;34.20;17.23;;;;;;;-2.23;47.49;95523.28;4939997;29;20039;-83
2021/01/19 06:36:06;;;;;;;38.15;17.95;;;;;;;-2.09;47.53;95522.84;4938736;29;20175;-82
2021/01/19 06:38:32;;;;;;;27.42;15.05;;;;;;;-1.71;46.99;95527.06;4938537;29;20066;-82
2021/01/19 06:41:17;;;;;;;28.90;17.13;;;;;;;-1.40;45.83;95537.81;4939268;29;20407;-81
2021/01/19 06:44:16;;;;;;;30.20;14.63;;;;;;;-1.21;45.13;95532.63;4941843;29;20035;-83
2021/01/19 06:47:05;;;;;;;28.95;14.15;;;;;;;-1.23;45.00;95529.41;4939268;29;20043;-81
2021/01/19 06:49:41;;;;;;;27.00;14.57;;;;;;;-1.20;44.92;95520.66;4916210;29;20042;-81
2021/01/19 06:52:16;;;;;;;27.83;15.13;;;;;;;-1.07;45.18;95538.22;4940176;29;20036;-82
2021/01/19 06:54:41;;;;;;;46.92;22.83;;;;;;;-1.14;44.74;95542.25;4939683;29;20428;-81
2021/01/19 06:57:34;;;;;;;40.28;18.95;;;;;;;-1.24;44.72;95527.81;4942716;29;20039;-83
2021/01/19 07:00:07;;;;;;;44.08;22.98;;;;;;;-1.05;45.32;95543.97;4932682;29;20483;-83
2021/01/19 07:02:39;;;;;;;34.47;17.55;;;;;;;-1.08;45.31;95537.41;4941586;29;20039;-82
2021/01/19 07:05:21;;;;;;;48.22;22.85;;;;;;;-0.93;45.72;95553.06;4932832;29;20046;-82
2021/01/19 07:07:47;;;;;;;29.13;17.60;;;;;;;-0.84;44.71;95549.63;4946861;29;20498;-82
2021/01/19 07:10:13;;;;;;;28.95;16.33;;;;;;;-0.70;45.31;95558.56;4985879;23;20053;-81
2021/01/19 07:12:58;;;;;;;30.20;16.55;;;;;;;-0.53;44.44;95550.09;4978688;28;20090;-81
2021/01/19 07:15:35;;;;;;;27.02;15.95;;;;;;;-0.40;44.17;95552.28;4962808;28;20030;-83
2021/01/19 07:18:10;;;;;;;41.78;22.05;;;;;;;-0.43;44.34;95553.41;4976948;28;20407;-83
2021/01/19 07:20:56;;;;;;;38.83;21.27;;;;;;;-0.34;44.44;95541.47;4961825;28;20026;-85
2021/01/19 07:23:37;;;;;;;25.60;14.45;;;;;;;-0.32;44.50;95562.59;4969117;28;20035;-83
2021/01/19 07:26:59;;;;;;;22.75;10.93;;;;;;;-0.22;44.50;95565.06;4966722;28;20031;-83
2021/01/19 07:29:25;;;;;;;15.60;9.18;;;;;;;-0.14;44.47;95568.50;4904189;28;20051;-82
2021/01/19 07:31:51;;;;;;;26.20;13.65;;;;;;;-0.16;44.20;95559.38;4969228;28;20077;-83
2021/01/19 07:34:31;;;;;;;17.17;10.48;;;;;;;-0.23;44.40;95566.81;4970606;28;20034;-81
2021/01/19 07:37:03;;;;;;;13.23;8.35;;;;;;;-0.11;44.08;95568.22;4955991;28;20041;-82
2021/01/19 07:39:35;;;;;;;15.00;9.30;;;;;;;-0.04;44.75;95553.88;4968301;28;20126;-82
2021/01/19 07:42:13;;;;;;;14.88;9.63;;;;;;;0.05;43.98;95561.63;4967132;28;20105;-82
2021/01/19 07:44:39;;;;;;;22.40;10.18;;;;;;;0.21;43.88;95564.28;4969504;28;20035;-82
2021/01/19 07:47:12;;;;;;;22.27;12.27;;;;;;;0.28;43.68;95565.28;4965803;28;20040;-82
2021/01/19 07:49:39;;;;;;;27.42;16.35;;;;;;;0.31;43.12;95559.88;4971436;28;20045;-82
2021/01/19 07:52:23;;;;;;;40.97;16.75;;;;;;;0.35;43.35;95568.06;4935660;28;20121;-83
2021/01/19 07:54:49;;;;;;;31.90;15.70;;;;;;;0.52;43.17;95575.69;4967583;28;20062;-81
2021/01/19 07:57:48;;;;;;;30.75;12.48;;;;;;;0.69;43.08;95580.91;4968759;28;20031;-83
2021/01/19 08:00:22;;;;;;;22.70;10.70;;;;;;;0.67;42.82;95582.81;4967329;28;20045;-82
2021/01/19 08:02:49;;;;;;;22.90;10.32;;;;;;;0.65;43.08;95585.53;4967224;28;20039;-83
2021/01/19 08:05:26;;;;;;;26.13;12.15;;;;;;;0.59;43.32;95586.91;4968352;28;20046;-82
2021/01/19 08:07:51;;;;;;;19.85;11.27;;;;;;;0.59;43.44;95584.34;4951285;28;20566;-82
2021/01/19 08:10:20;;;;;;;19.27;9.93;;;;;;;0.48;43.79;95592.28;4942326;28;20055;-82
2021/01/19 08:12:47;;;;;;;19.33;11.23;;;;;;;0.46;43.68;95593.38;4965309;28;20038;-82
2021/01/19 08:15:18;;;;;;;17.13;10.77;;;;;;;0.44;43.78;95598.66;4940544;28;20043;-82
2021/01/19 08:17:43;;;;;;;17.88;10.68;;;;;;;0.46;43.79;95590.81;4932665;28;20031;-82
2021/01/19 08:20:09;;;;;;;19.40;13.32;;;;;;;0.56;44.02;95601.78;4950296;28;20039;-82
2021/01/19 08:22:41;;;;;;;24.88;12.52;;;;;;;0.49;44.09;95591.34;5012994;23;20034;-80
2021/01/19 08:25:11;;;;;;;24.65;13.23;;;;;;;0.69;44.25;95602.19;4978202;28;20035;-80
2021/01/19 08:27:37;;;;;;;27.05;12.77;;;;;;;0.62;43.65;95595.25;4958741;28;20125;-80
2021/01/19 08:30:03;;;;;;;22.10;11.55;;;;;;;0.65;44.17;95610.28;4952645;28;20039;-79
2021/01/19 08:32:29;;;;;;;53.38;28.92;;;;;;;0.77;43.80;95609.09;4972770;28;20114;-80
2021/01/19 08:34:54;;;;;;;42.58;21.98;;;;;;;0.87;43.58;95609.78;4939202;28;20094;-80
2021/01/19 08:37:20;;;;;;;33.00;19.05;;;;;;;0.85;43.82;95607.41;4936540;28;20069;-83
2021/01/19 08:39:55;;;;;;;55.70;31.65;;;;;;;0.92;43.78;95602.44;4948442;28;20047;-81
2021/01/19 08:42:25;;;;;;;59.22;28.90;;;;;;;0.94;43.30;95586.94;5024315;23;20057;-80
2021/01/19 08:44:57;;;;;;;84.80;44.58;;;;;;;1.11;43.60;95602.22;4956376;29;20458;-81
2021/01/19 08:47:24;;;;;;;91.07;52.75;;;;;;;1.07;43.65;95603.47;5001971;23;20039;-82
2021/01/19 08:49:50;;;;;;;54.03;28.83;;;;;;;0.92;44.14;95599.88;4940675;28;20035;-82
2021/01/19 08:52:36;;;;;;;37.40;19.35;;;;;;;0.76;44.36;95602.38;4969188;28;20042;-82
2021/01/19 08:55:22;;;;;;;43.53;21.23;;;;;;;0.71;44.93;95590.03;4956938;28;20121;-81
2021/01/19 08:58:00;;;;;;;62.88;31.02;;;;;;;0.78;44.81;95595.34;4960360;28;20035;-82
2021/01/19 09:00:39;;;;;;;34.17;19.48;;;;;;;0.82;44.69;95604.34;4976709;28;20518;-82
2021/01/19 09:03:14;;;;;;;57.22;27.85;;;;;;;0.55;45.54;95585.63;4958809;28;20049;-82
2021/01/19 09:05:40;;;;;;;42.83;21.65;;;;;;;0.56;45.81;95600.03;4974302;28;20097;-81
2021/01/19 09:08:18;;;;;;;21.38;13.13;;;;;;;0.47;45.72;95597.53;4942992;28;20038;-81
2021/01/19 09:10:47;;;;;;;36.70;19.92;;;;;;;0.47;46.17;95602.66;4975328;28;20906;-82
2021/01/19 09:13:12;;;;;;;47.88;25.83;;;;;;;0.57;46.06;95599.06;5020421;23;20054;-82
2021/01/19 09:15:39;;;;;;;31.00;18.30;;;;;;;0.62;45.89;95596.03;4976505;28;20426;-81
2021/01/19 09:18:05;;;;;;;41.72;20.27;;;;;;;0.52;46.52;95596.16;4931976;29;20044;-81
2021/01/19 09:20:31;;;;;;;41.13;20.40;;;;;;;0.54;46.79;95594.25;4938686;29;20519;-82
2021/01/19 09:23:09;;;;;;;28.42;15.75;;;;;;;0.71;46.30;95591.78;4954862;29;20076;-81
2021/01/19 09:25:35;;;;;;;20.42;12.85;;;;;;;0.70;46.06;95592.75;4949855;29;20027;-83
2021/01/19 09:28:07;;;;;;;28.63;16.35;;;;;;;0.68;45.97;95584.41;4939480;29;20499;-83
2021/01/19 09:30:35;;;;;;;28.37;16.13;;;;;;;0.62;46.11;95588.38;4934478;29;20032;-82
2021/01/19 09:33:08;;;;;;;18.70;11.73;;;;;;;0.54;46.21;95589.13;4954988;29;20362;-83
2021/01/19 09:35:34;;;;;;;22.23;16.08;;;;;;;0.52;46.76;95575.69;4958612;28;20039;-82
2021/01/19 09:38:00;;;;;;;37.55;21.48;;;;;;;0.56;47.00;95568.50;4943047;29;20046;-81
2021/01/19 09:40:33;;;;;;;65.45;35.25;;;;;;;0.76;47.11;95581.88;4958798;29;20073;-83
2021/01/19 09:42:58;;;;;;;49.17;27.65;;;;;;;0.82;46.88;95576.19;4941602;29;20031;-83
2021/01/19 09:45:36;;;;;;;27.58;16.83;;;;;;;0.92;46.31;95571.72;4942124;29;20039;-82
2021/01/19 09:48:11;;;;;;;33.88;17.55;;;;;;;1.13;46.20;95571.31;4959810;29;20031;-82
2021/01/19 09:50:37;;;;;;;16.20;10.13;;;;;;;1.31;45.33;95555.88;4958418;29;20043;-83
2021/01/19 09:53:02;;;;;;;18.77;8.50;;;;;;;1.41;45.11;95564.22;4960618;29;20054;-83
2021/01/19 09:55:31;;;;;;;17.08;11.80;;;;;;;1.51;44.74;95567.44;4961031;29;20032;-82
2021/01/19 09:58:06;;;;;;;18.38;11.63;;;;;;;1.84;45.11;95562.38;4944819;29;20487;-81
2021/01/19 10:00:36;;;;;;;24.50;15.20;;;;;;;2.40;44.13;95557.19;4961389;29;20043;-83
2021/01/19 10:03:18;;;;;;;26.50;15.25;;;;;;;2.74;42.88;95558.72;4959048;29;20027;-83
2021/01/19 10:06:07;;;;;;;21.88;12.25;;;;;;;2.74;42.55;95558.72;4961015;29;20063;-83
2021/01/19 10:08:36;;;;;;;21.42;13.02;;;;;;;2.73;42.49;95564.84;4950238;29;20030;-83
2021/01/19 10:11:01;;;;;;;25.27;12.90;;;;;;;2.71;42.90;95566.75;4958898;29;20031;-83
2021/01/19 10:13:36;;;;;;;37.72;19.85;;;;;;;2.76;42.69;95559.34;4960689;29;20032;-83
2021/01/19 10:16:05;;;;;;;20.73;11.10;;;;;;;2.78;42.22;95556.66;4960231;29;20043;-83
2021/01/19 10:18:31;;;;;;;31.48;15.35;;;;;;;2.73;42.41;95554.56;4943887;29;20031;-82
2021/01/19 10:21:03;;;;;;;27.83;15.40;;;;;;;2.63;43.07;95564.22;4949621;29;20609;-82
2021/01/19 10:23:30;;;;;;;31.77;17.38;;;;;;;2.65;42.80;95562.28;4956298;29;20086;-82
2021/01/19 10:26:09;;;;;;;19.27;11.60;;;;;;;2.56;42.27;95563.28;4941893;29;20078;-82
2021/01/19 10:28:44;;;;;;;23.98;14.40;;;;;;;2.46;42.89;95560.09;4957392;29;20537;-82
2021/01/19 10:31:20;;;;;;;38.92;20.38;;;;;;;2.51;43.25;95556.06;4957489;29;20035;-82
2021/01/19 10:34:04;;;;;;;39.60;21.05;;;;;;;2.59;42.79;95550.09;4959448;29;20047;-82
2021/01/19 10:36:31;;;;;;;48.08;24.70;;;;;;;2.68;42.87;95556.81;4958955;29;20031;-82
2021/01/19 10:39:07;;;;;;;38.63;19.20;;;;;;;2.70;42.56;95547.19;4958454;29;20039;-82
2021/01/19 10:41:32;;;;;;;29.25;16.45;;;;;;;2.57;43.35;95552.03;4956801;29;20535;-82
2021/01/19 10:44:00;;;;;;;30.70;17.25;;;;;;;2.62;43.38;95549.78;4959321;29;20070;-82
2021/01/19 10:46:31;;;;;;;39.47;19.85;;;;;;;2.73;43.29;95539.16;4939927;29;20050;-82
2021/01/19 10:49:09;;;;;;;38.20;16.17;;;;;;;2.73;42.64;95539.16;4956196;29;20039;-82
2021/01/19 10:54:16;;;;;;;25.42;15.93;;;;;;;2.54;43.78;95539.53;5003876;23;20063;-82
2021/01/19 10:56:44;;;;;;;58.22;26.20;;;;;;;2.63;43.87;95541.13;4959248;28;20064;-82
2021/01/19 10:59:09;;;;;;;46.83;24.95;;;;;;;2.67;43.62;95524.41;4950157;29;20070;-82
2021/01/19 11:01:41;;;;;;;28.20;14.85;;;;;;;2.62;43.72;95532.63;4951261;28;20031;-83
2021/01/19 11:04:09;;;;;;;20.63;14.00;;;;;;;2.67;43.53;95526.97;4934485;29;20027;-82
2021/01/19 11:06:35;;;;;;;60.67;30.02;;;;;;;2.61;44.09;95520.75;4951435;29;20055;-82
2021/01/19 11:09:01;;;;;;;36.50;21.25;;;;;;;2.79;43.21;95533.38;4949631;29;20038;-83
2021/01/19 11:11:27;;;;;;;48.17;25.45;;;;;;;2.83;43.40;95524.34;4952428;29;20036;-82
2021/01/19 11:13:56;;;;;;;29.27;16.77;;;;;;;2.76;43.90;95517.47;5781055;23;20043;-80
2021/01/19 11:16:27;;;;;;;68.25;34.55;;;;;;;2.84;43.89;95518.25;4936029;28;20051;-81
2021/01/19 11:18:52;;;;;;;37.67;21.02;;;;;;;2.89;43.15;95520.31;4976278;28;20027;-82
2021/01/19 11:21:17;;;;;;;37.80;20.45;;;;;;;2.84;43.61;95510.56;4978535;28;20050;-81
2021/01/19 11:23:43;;;;;;;57.17;25.30;;;;;;;2.91;42.92;95511.47;4977917;28;20030;-82
2021/01/19 11:26:08;;;;;;;37.40;21.25;;;;;;;2.89;42.98;95507.47;4978507;28;20035;-83
2021/01/19 11:28:39;;;;;;;36.22;21.70;;;;;;;2.97;42.69;95515.97;4977513;28;20418;-82
2021/01/19 11:31:07;;;;;;;55.15;26.85;;;;;;;3.06;42.91;95510.78;4966043;28;20022;-82
2021/01/19 11:33:35;;;;;;;23.75;13.57;;;;;;;2.91;42.57;95503.75;4984820;28;20041;-83
2021/01/19 11:36:07;;;;;;;35.83;19.65;;;;;;;2.87;42.92;95499.94;4980212;28;20034;-84
2021/01/19 11:38:33;;;;;;;33.00;19.17;;;;;;;2.83;43.07;95488.41;4979504;28;20085;-83
2021/01/19 11:41:08;;;;;;;37.53;20.52;;;;;;;2.83;43.50;95482.47;4978249;28;20030;-83